Time;durP1;ratioP1;P1;durP2;ratioP2;P2;SDS_P1;SDS_P2;PMS_P1;PMS_P2;Temp;Humidity;BMP_temperature;BMP_pressure;BME280_temperature;BME280_humidity;BME280_pressure;Samples;Min_cycle;Max_cycle;Signal;HPM_P1;HPM_P2
2022/03/19 00:00:58;;;;;;;15.07;7.83;;;;;8.90;103863.00;;;;5082259;28;20224;-66
2022/03/19 00:03:44;;;;;;;10.23;6.67;;;;;8.90;103856.00;;;;5074191;28;20235;-65
2022/03/19 00:06:31;;;;;;;12.63;7.17;;;;;8.80;103858.00;;;;5090523;28;20229;-66
2022/03/19 00:09:17;;;;;;;12.43;6.70;;;;;8.80;103860.00;;;;5087239;28;20330;-65
2022/03/19 00:12:04;;;;;;;12.60;7.20;;;;;8.80;103857.00;;;;5078113;28;20227;-66
2022/03/19 00:14:51;;;;;;;11.33;7.33;;;;;8.80;103860.00;;;;5085024;28;20231;-67
2022/03/19 00:17:39;;;;;;;10.33;6.93;;;;;8.60;103862.00;;;;5074541;28;20232;-66
2022/03/19 00:20:25;;;;;;;12.83;7.30;;;;;8.70;103858.00;;;;5087555;28;20703;-65
2022/03/19 00:23:11;;;;;;;12.43;6.90;;;;;8.70;103860.00;;;;5083120;28;20360;-66
2022/03/19 00:25:58;;;;;;;16.93;7.33;;;;;8.60;103852.00;;;;5085687;28;20323;-67
2022/03/19 00:28:44;;;;;;;14.53;6.93;;;;;8.40;103855.00;;;;5069247;28;20360;-68
2022/03/19 00:31:30;;;;;;;12.10;7.60;;;;;8.50;103859.00;;;;5083603;28;20230;-67
2022/03/19 00:34:18;;;;;;;14.27;7.47;;;;;8.50;103858.00;;;;5075543;28;20354;-65
2022/03/19 00:37:04;;;;;;;14.37;7.93;;;;;8.50;103857.00;;;;5080700;28;20242;-67
2022/03/19 00:39:51;;;;;;;15.93;8.07;;;;;8.60;103842.00;;;;5083092;28;20227;-67
2022/03/19 00:42:37;;;;;;;12.87;7.50;;;;;8.40;103851.00;;;;5067945;28;20238;-67
2022/03/19 00:45:23;;;;;;;13.03;7.80;;;;;8.30;103847.00;;;;5083905;28;20232;-67
2022/03/19 00:48:09;;;;;;;15.60;8.20;;;;;8.30;103847.00;;;;5083434;28;20581;-68
2022/03/19 00:50:57;;;;;;;11.97;8.07;;;;;8.30;103846.00;;;;5083929;28;20590;-67
2022/03/19 00:53:43;;;;;;;14.03;8.13;;;;;8.20;103842.00;;;;5070691;28;20406;-66
2022/03/19 00:56:29;;;;;;;16.30;8.33;;;;;8.30;103839.00;;;;5068180;28;20629;-69
2022/03/19 00:59:16;;;;;;;15.93;8.57;;;;;8.20;103833.00;;;;5082609;28;20220;-65
2022/03/19 01:02:02;;;;;;;12.53;7.67;;;;;8.20;103836.00;;;;5085160;28;20223;-67
2022/03/19 01:04:48;;;;;;;14.97;7.87;;;;;8.20;103836.00;;;;5091557;28;20310;-66
2022/03/19 01:07:43;;;;;;;12.90;8.20;;;;;8.30;103814.00;;;;5072597;28;20226;-66
2022/03/19 01:10:31;;;;;;;14.80;8.50;;;;;8.10;103836.00;;;;5097472;28;20227;-66
2022/03/19 01:13:17;;;;;;;15.60;8.37;;;;;8.20;103834.00;;;;5105976;28;20245;-66
2022/03/19 01:16:03;;;;;;;13.23;8.27;;;;;8.10;103827.00;;;;5104918;28;20226;-67
2022/03/19 01:18:50;;;;;;;11.73;7.97;;;;;8.00;103826.00;;;;5088930;28;20385;-67
2022/03/19 01:21:36;;;;;;;13.93;7.87;;;;;8.10;103827.00;;;;5092653;28;20230;-66
2022/03/19 01:24:24;;;;;;;17.00;8.33;;;;;8.00;103828.00;;;;5099131;28;20254;-65
2022/03/19 01:27:10;;;;;;;13.87;8.80;;;;;8.00;103822.00;;;;5108143;28;20225;-67
2022/03/19 01:29:56;;;;;;;14.57;8.30;;;;;8.00;103831.00;;;;5080756;28;20228;-65
2022/03/19 01:32:42;;;;;;;16.17;8.97;;;;;7.90;103829.00;;;;5079530;28;20240;-64
2022/03/19 01:35:29;;;;;;;13.13;8.20;;;;;7.90;103826.00;;;;5078086;28;20733;-65
2022/03/19 01:38:15;;;;;;;16.40;9.27;;;;;8.00;103829.00;;;;5083317;28;20770;-66
2022/03/19 01:41:03;;;;;;;12.57;8.43;;;;;8.00;103820.00;;;;5080037;28;20270;-65
2022/03/19 01:43:49;;;;;;;13.50;8.27;;;;;8.00;103822.00;;;;5092519;28;20582;-65
2022/03/19 01:46:56;;;;;;;12.93;8.20;;;;;8.00;103823.00;;;;5092164;27;20583;-65
2022/03/19 01:49:43;;;;;;;18.03;9.27;;;;;7.80;103822.00;;;;5071729;28;20238;-65
2022/03/19 01:52:29;;;;;;;14.03;9.10;;;;;7.90;103814.00;;;;5085799;28;20219;-66
2022/03/19 01:55:18;;;;;;;17.43;9.17;;;;;7.80;103819.00;;;;5080187;28;20270;-67
2022/03/19 01:58:06;;;;;;;16.23;8.87;;;;;7.80;103814.00;;;;5084950;28;20223;-67
2022/03/19 02:00:52;;;;;;;13.70;8.37;;;;;7.70;103820.00;;;;5076029;28;20246;-66
2022/03/19 02:03:39;;;;;;;14.10;9.30;;;;;7.70;103820.00;;;;5074842;28;20285;-66
2022/03/19 02:06:27;;;;;;;13.07;8.43;;;;;7.80;103819.00;;;;5084494;28;20234;-67
2022/03/19 02:09:13;;;;;;;15.60;8.73;;;;;7.70;103815.00;;;;5085779;28;20365;-67
2022/03/19 02:11:59;;;;;;;15.83;9.07;;;;;7.80;103814.00;;;;5084565;28;20227;-67
2022/03/19 02:14:48;;;;;;;14.17;9.23;;;;;7.60;103813.00;;;;5071467;28;20713;-67
2022/03/19 02:17:34;;;;;;;15.37;9.10;;;;;7.50;103807.00;;;;5070070;28;20223;-67
2022/03/19 02:20:20;;;;;;;17.57;9.27;;;;;7.60;103801.00;;;;5102520;28;20753;-68
2022/03/19 02:26:25;;;;;;;15.37;8.97;;;;;7.60;103808.00;;;;5081140;28;20235;-68
2022/03/19 02:29:11;;;;;;;13.13;8.87;;;;;7.40;103799.00;;;;5083814;28;20231;-66
2022/03/19 02:31:59;;;;;;;14.07;8.23;;;;;7.40;103795.00;;;;5083277;28;20389;-67
2022/03/19 02:34:46;;;;;;;15.17;9.67;;;;;7.30;103796.00;;;;5073461;28;20227;-67
2022/03/19 02:37:39;;;;;;;17.77;8.73;;;;;7.20;103792.00;;;;5082506;28;20791;-65
2022/03/19 02:40:27;;;;;;;19.13;9.13;;;;;7.30;103789.00;;;;5086450;28;20710;-66
2022/03/19 02:43:13;;;;;;;14.90;9.00;;;;;7.20;103787.00;;;;5084929;28;20231;-64
2022/03/19 02:45:59;;;;;;;17.60;9.47;;;;;7.10;103779.00;;;;5091120;28;20293;-67
2022/03/19 02:48:45;;;;;;;13.03;8.47;;;;;7.20;103789.00;;;;5088322;28;20276;-67
2022/03/19 02:51:34;;;;;;;15.03;8.57;;;;;7.20;103782.00;;;;5099192;28;20218;-66
2022/03/19 02:54:23;;;;;;;16.00;8.53;;;;;7.30;103785.00;;;;5101363;28;20281;-66
2022/03/19 02:57:10;;;;;;;13.43;8.70;;;;;7.20;103775.00;;;;5104247;28;20590;-66
2022/03/19 02:59:56;;;;;;;13.77;7.90;;;;;7.20;103769.00;;;;5089838;28;20352;-66
2022/03/19 03:02:43;;;;;;;14.97;8.73;;;;;7.20;103765.00;;;;5096954;28;20826;-66
2022/03/19 03:05:29;;;;;;;17.80;9.10;;;;;7.00;103761.00;;;;5105685;28;20270;-65
2022/03/19 03:08:16;;;;;;;15.97;8.23;;;;;7.10;103761.00;;;;5106017;28;20222;-66
2022/03/19 03:11:02;;;;;;;18.50;8.53;;;;;7.20;103764.00;;;;5105897;28;20225;-67
2022/03/19 03:13:50;;;;;;;15.87;8.80;;;;;7.20;103758.00;;;;5095096;28;20231;-66
2022/03/19 03:16:37;;;;;;;15.00;8.60;;;;;7.10;103759.00;;;;5099440;28;20288;-67
2022/03/19 03:19:23;;;;;;;15.10;8.77;;;;;7.20;103763.00;;;;5099430;28;20588;-66
2022/03/19 03:22:09;;;;;;;13.37;8.33;;;;;7.30;103750.00;;;;5103444;28;20230;-66
2022/03/19 03:24:56;;;;;;;17.07;9.07;;;;;7.10;103750.00;;;;5096725;28;20231;-62
2022/03/19 03:27:42;;;;;;;17.10;8.20;;;;;7.10;103747.00;;;;5090354;28;20222;-66
2022/03/19 03:30:29;;;;;;;18.00;8.53;;;;;7.00;103753.00;;;;5092934;28;20709;-66
2022/03/19 03:33:16;;;;;;;18.30;8.57;;;;;7.20;103746.00;;;;5104536;28;20250;-66
2022/03/19 03:36:02;;;;;;;16.70;8.20;;;;;7.10;103743.00;;;;5101259;28;20226;-66
2022/03/19 03:38:49;;;;;;;13.50;7.67;;;;;7.00;103741.00;;;;5094492;28;20747;-64
2022/03/19 03:41:35;;;;;;;14.00;8.43;;;;;7.00;103746.00;;;;5097200;28;20226;-66
2022/03/19 03:44:21;;;;;;;13.87;8.50;;;;;7.00;103750.00;;;;5088129;28;20235;-67
2022/03/19 03:47:09;;;;;;;13.50;8.50;;;;;6.90;103739.00;;;;5085570;28;20231;-65
2022/03/19 03:49:56;;;;;;;14.93;8.00;;;;;6.90;103738.00;;;;5073417;28;20223;-65
2022/03/19 03:52:42;;;;;;;14.67;8.13;;;;;7.10;103739.00;;;;5071626;28;20784;-67
2022/03/19 03:55:28;;;;;;;13.77;7.87;;;;;7.00;103742.00;;;;5102216;28;20717;-67
2022/03/19 03:58:15;;;;;;;13.93;7.60;;;;;7.00;103730.00;;;;5104983;28;20617;-66
2022/03/19 04:01:01;;;;;;;16.03;7.83;;;;;7.00;103742.00;;;;5104934;28;20229;-66
2022/03/19 04:03:49;;;;;;;15.43;7.67;;;;;6.90;103733.00;;;;5091033;28;20234;-66
2022/03/19 04:06:35;;;;;;;20.30;8.13;;;;;7.00;103732.00;;;;5104690;28;20242;-66
2022/03/19 04:09:22;;;;;;;13.60;8.30;;;;;6.90;103736.00;;;;5102295;28;20277;-66
2022/03/19 04:12:09;;;;;;;15.20;8.33;;;;;6.90;103736.00;;;;5103260;28;20227;-67
2022/03/19 04:14:56;;;;;;;18.67;8.03;;;;;6.90;103737.00;;;;5085021;28;20223;-66
2022/03/19 04:17:42;;;;;;;16.93;8.23;;;;;6.90;103733.00;;;;5084514;28;20227;-66
2022/03/19 04:20:30;;;;;;;11.93;8.10;;;;;6.80;103740.00;;;;5099895;28;20226;-67
2022/03/19 04:23:16;;;;;;;14.80;8.00;;;;;6.70;103743.00;;;;5104683;28;20226;-65
2022/03/19 04:26:03;;;;;;;14.93;7.97;;;;;6.90;103735.00;;;;5085429;28;20252;-66
2022/03/19 04:28:49;;;;;;;12.43;7.40;;;;;6.90;103731.00;;;;5090654;28;20254;-66
2022/03/19 04:31:35;;;;;;;14.10;8.00;;;;;7.10;103733.00;;;;5104221;28;20288;-67
2022/03/19 04:34:22;;;;;;;13.30;7.23;;;;;6.70;103734.00;;;;5104504;28;20400;-65
2022/03/19 04:37:09;;;;;;;11.23;7.60;;;;;6.80;103733.00;;;;5104689;28;20222;-66
2022/03/19 04:39:56;;;;;;;12.83;7.57;;;;;6.90;103739.00;;;;5091436;28;20272;-67
2022/03/19 04:42:42;;;;;;;13.27;7.87;;;;;6.80;103747.00;;;;5087033;28;20230;-66
2022/03/19 04:45:28;;;;;;;12.90;7.57;;;;;6.80;103731.00;;;;5103926;28;20230;-66
2022/03/19 04:48:14;;;;;;;14.80;8.17;;;;;6.80;103736.00;;;;5104152;28;20284;-66
2022/03/19 04:51:00;;;;;;;13.50;7.33;;;;;6.80;103734.00;;;;5094859;28;20230;-66
2022/03/19 04:53:50;;;;;;;12.57;7.57;;;;;6.60;103723.00;;;;5099242;28;20319;-66
2022/03/19 04:56:37;;;;;;;14.27;7.97;;;;;6.60;103731.00;;;;5104755;28;20234;-65
2022/03/19 04:59:24;;;;;;;17.27;8.40;;;;;6.50;103731.00;;;;5107109;28;20234;-67
2022/03/19 05:02:10;;;;;;;16.37;8.00;;;;;6.60;103733.00;;;;5091920;28;20230;-66
2022/03/19 05:04:56;;;;;;;12.57;7.57;;;;;6.50;103727.00;;;;5089226;28;20226;-66
2022/03/19 05:07:42;;;;;;;15.17;8.00;;;;;6.60;103735.00;;;;5075765;28;20247;-66
2022/03/19 05:13:41;;;;;;;11.80;7.10;;;;;6.40;103740.00;;;;5072374;28;20241;-66
2022/03/19 05:16:27;;;;;;;16.07;7.60;;;;;6.40;103740.00;;;;5088994;28;20280;-67
2022/03/19 05:19:14;;;;;;;12.60;7.50;;;;;6.40;103743.00;;;;5097022;28;20312;-67
2022/03/19 05:22:00;;;;;;;10.27;7.07;;;;;6.40;103738.00;;;;5091753;28;20253;-66
2022/03/19 05:24:46;;;;;;;12.57;7.23;;;;;6.40;103736.00;;;;5101225;28;20352;-66
2022/03/19 05:27:34;;;;;;;13.43;7.27;;;;;6.40;103741.00;;;;5100819;28;20661;-67
2022/03/19 05:30:20;;;;;;;10.70;6.77;;;;;6.40;103740.00;;;;5101064;28;20249;-64
2022/03/19 05:33:06;;;;;;;14.07;7.43;;;;;6.50;103740.00;;;;5103807;28;20676;-67
2022/03/19 05:35:53;;;;;;;15.03;7.40;;;;;6.40;103746.00;;;;5089742;28;20288;-67
2022/03/19 05:38:40;;;;;;;11.13;6.93;;;;;6.50;103748.00;;;;5103086;28;20226;-66
2022/03/19 05:41:27;;;;;;;11.13;7.23;;;;;6.40;103751.00;;;;5103336;28;20227;-68
2022/03/19 05:44:16;;;;;;;11.13;7.30;;;;;6.40;103747.00;;;;5102281;28;20239;-67
2022/03/19 05:47:02;;;;;;;14.83;8.23;;;;;6.40;103747.00;;;;5088515;28;20357;-67
2022/03/19 05:49:49;;;;;;;13.47;6.87;;;;;6.20;103753.00;;;;5103733;28;20227;-67
2022/03/19 05:52:35;;;;;;;13.93;7.30;;;;;6.30;103742.00;;;;5098997;28;20226;-67
2022/03/19 05:55:22;;;;;;;13.17;6.10;;;;;6.10;103751.00;;;;5104586;28;20227;-66
2022/03/19 05:58:08;;;;;;;18.67;6.53;;;;;6.10;103751.00;;;;5106089;28;20917;-66
2022/03/19 06:00:56;;;;;;;10.87;5.97;;;;;6.10;103757.00;;;;5093349;28;20230;-65
2022/03/19 06:03:43;;;;;;;12.60;6.63;;;;;6.30;103761.00;;;;5107224;28;20303;-63
2022/03/19 06:06:30;;;;;;;11.13;6.10;;;;;6.30;103764.00;;;;5107232;28;20934;-67
2022/03/19 06:09:16;;;;;;;13.83;6.83;;;;;6.10;103763.00;;;;5107339;28;20230;-63
2022/03/19 06:12:03;;;;;;;14.23;6.47;;;;;6.20;103757.00;;;;5090633;28;20725;-64
2022/03/19 06:14:53;;;;;;;17.10;6.73;;;;;6.10;103762.00;;;;5091439;27;20234;-67
2022/03/19 06:17:41;;;;;;;10.93;5.67;;;;;6.20;103764.00;;;;5103883;27;20273;-66
2022/03/19 06:20:27;;;;;;;15.60;6.17;;;;;6.20;103772.00;;;;5104409;27;20233;-63
2022/03/19 06:23:13;;;;;;;8.27;5.47;;;;;6.30;103770.00;;;;5107697;27;20238;-66
2022/03/19 06:26:00;;;;;;;8.70;5.40;;;;;6.20;103771.00;;;;5094434;27;20257;-66
2022/03/19 06:28:46;;;;;;;10.40;5.53;;;;;6.20;103771.00;;;;5104487;27;20799;-65
2022/03/19 06:31:32;;;;;;;8.03;4.57;;;;;6.20;103775.00;;;;5088759;28;20316;-66
2022/03/19 06:34:20;;;;;;;9.10;5.57;;;;;6.30;103768.00;;;;5087241;28;20340;-64
2022/03/19 06:37:20;;;;;;;8.50;4.80;;;;;6.20;103762.00;;;;5081402;28;20383;-65
2022/03/19 06:40:08;;;;;;;11.40;5.13;;;;;6.30;103771.00;;;;5075477;28;20226;-66
2022/03/19 06:42:54;;;;;;;11.07;5.30;;;;;6.30;103723.00;;;;5069870;28;20820;-65
2022/03/19 06:45:40;;;;;;;11.53;5.27;;;;;6.30;103768.00;;;;5069694;28;20232;-65
2022/03/19 06:48:27;;;;;;;9.97;5.47;;;;;6.30;103766.00;;;;5053597;28;20244;-66
2022/03/19 06:51:15;;;;;;;11.93;5.73;;;;;6.40;103774.00;;;;5068373;28;20246;-65
2022/03/19 06:54:04;;;;;;;15.80;6.10;;;;;6.40;103766.00;;;;5089066;28;20239;-65
2022/03/19 06:56:52;;;;;;;12.30;5.60;;;;;6.50;103754.00;;;;5091772;28;20301;-66
2022/03/19 06:59:38;;;;;;;11.73;5.10;;;;;6.60;103760.00;;;;5095720;28;20535;-66
2022/03/19 07:02:24;;;;;;;18.40;6.20;;;;;6.70;103762.00;;;;5103375;28;20691;-64
2022/03/19 07:05:11;;;;;;;12.20;6.33;;;;;6.70;103765.00;;;;5106602;28;20230;-66
2022/03/19 07:08:00;;;;;;;15.13;6.47;;;;;6.70;103750.00;;;;5091720;28;20607;-65
2022/03/19 07:10:46;;;;;;;17.47;6.03;;;;;6.90;103772.00;;;;5105660;28;20301;-66
2022/03/19 07:13:32;;;;;;;10.93;5.40;;;;;7.00;103764.00;;;;5105730;28;20229;-67
2022/03/19 07:16:19;;;;;;;16.63;5.73;;;;;7.10;103762.00;;;;5098318;28;20250;-66
2022/03/19 07:19:06;;;;;;;11.70;6.30;;;;;7.30;103762.00;;;;5074435;28;20228;-67
2022/03/19 07:21:52;;;;;;;11.73;6.17;;;;;7.40;103749.00;;;;5077134;28;20219;-66
2022/03/19 07:24:40;;;;;;;13.67;6.40;;;;;7.40;103757.00;;;;5099817;28;20239;-66
2022/03/19 07:27:26;;;;;;;13.70;6.53;;;;;7.50;103754.00;;;;5079847;27;20240;-67
2022/03/19 07:30:13;;;;;;;9.07;5.50;;;;;7.60;103748.00;;;;5106096;27;20730;-66
2022/03/19 07:33:00;;;;;;;15.13;5.87;;;;;7.60;103754.00;;;;5088162;28;20223;-66
2022/03/19 07:35:46;;;;;;;10.97;5.57;;;;;7.70;103750.00;;;;5085368;28;20227;-65
2022/03/19 07:38:33;;;;;;;14.03;5.60;;;;;7.80;103753.00;;;;5085180;28;20231;-67
2022/03/19 07:44:24;;;;;;;12.60;5.87;;;;;7.90;103743.00;;;;5102283;27;20647;-67
2022/03/19 07:47:11;;;;;;;14.73;6.10;;;;;7.90;103741.00;;;;5094493;28;20337;-66
2022/03/19 07:49:57;;;;;;;10.17;4.97;;;;;8.10;103744.00;;;;5090164;28;20962;-66
2022/03/19 07:52:44;;;;;;;12.90;5.73;;;;;8.20;103751.00;;;;5103302;28;20361;-67
2022/03/19 07:55:30;;;;;;;13.00;5.60;;;;;8.20;103739.00;;;;5104766;27;20226;-67
2022/03/19 07:58:18;;;;;;;11.90;6.13;;;;;8.20;103742.00;;;;5105703;28;20257;-67
2022/03/19 08:01:04;;;;;;;12.63;5.90;;;;;8.20;103736.00;;;;5073591;28;20215;-67
2022/03/19 08:03:50;;;;;;;10.93;5.90;;;;;8.30;103750.00;;;;5078414;28;20227;-66
2022/03/19 08:06:37;;;;;;;10.80;4.83;;;;;8.40;103736.00;;;;5081484;28;20226;-65
2022/03/19 08:09:25;;;;;;;16.43;5.73;;;;;8.50;103745.00;;;;5064229;28;20314;-66
2022/03/19 08:12:11;;;;;;;8.73;5.07;;;;;8.80;103743.00;;;;5073653;28;20796;-66
2022/03/19 08:14:59;;;;;;;14.10;5.47;;;;;8.90;103751.00;;;;5084886;28;20220;-63
2022/03/19 08:17:46;;;;;;;8.67;5.13;;;;;8.90;103751.00;;;;5084232;28;20733;-67
2022/03/19 08:20:32;;;;;;;11.40;5.30;;;;;9.00;103746.00;;;;5095948;28;20233;-68
2022/03/19 08:23:20;;;;;;;9.63;5.10;;;;;9.10;103748.00;;;;5105365;28;20237;-68
2022/03/19 08:26:06;;;;;;;8.70;4.83;;;;;9.10;103743.00;;;;5075537;28;20701;-67
2022/03/19 08:28:53;;;;;;;7.23;4.33;;;;;9.00;103759.00;;;;5104786;28;20284;-67
2022/03/19 08:31:40;;;;;;;10.43;5.00;;;;;9.20;103754.00;;;;5085330;28;20224;-67
2022/03/19 08:34:27;;;;;;;9.03;4.37;;;;;9.20;103749.00;;;;5073259;28;20362;-67
2022/03/19 08:37:13;;;;;;;7.77;4.33;;;;;9.30;103752.00;;;;5099068;27;20385;-66
2022/03/19 08:40:17;;;;;;;9.67;4.73;;;;;9.40;103752.00;;;;5071515;28;20225;-67
2022/03/19 08:43:03;;;;;;;10.50;4.77;;;;;9.40;103754.00;;;;5072766;28;20362;-67
2022/03/19 08:45:49;;;;;;;10.63;4.60;;;;;9.40;103746.00;;;;5101914;28;20240;-67
2022/03/19 08:48:37;;;;;;;9.10;4.43;;;;;9.60;103759.00;;;;5085411;28;20302;-67
2022/03/19 08:51:42;;;;;;;5.80;3.80;;;;;9.60;103744.00;;;;5084450;28;20233;-68
2022/03/19 08:54:28;;;;;;;7.80;3.83;;;;;9.80;103736.00;;;;5091655;28;20235;-67
2022/03/19 08:57:14;;;;;;;7.23;4.17;;;;;10.10;103743.00;;;;5093476;28;20338;-69
2022/03/19 09:00:04;;;;;;;15.30;4.40;;;;;10.30;103734.00;;;;5071247;28;20305;-70
2022/03/19 09:03:00;;;;;;;9.17;4.10;;;;;10.20;103729.00;;;;5052365;28;20240;-67
2022/03/19 09:05:47;;;;;;;7.23;4.10;;;;;10.30;103729.00;;;;5045989;28;20818;-69
2022/03/19 09:08:33;;;;;;;7.70;3.77;;;;;10.30;103721.00;;;;5100899;28;20245;-69
2022/03/19 09:11:21;;;;;;;7.37;4.00;;;;;10.30;103711.00;;;;5063989;28;20320;-70
2022/03/19 09:14:08;;;;;;;7.30;3.87;;;;;10.40;103713.00;;;;5050835;28;20238;-70
2022/03/19 09:16:55;;;;;;;6.80;3.83;;;;;10.60;103728.00;;;;5089690;28;20224;-71
2022/03/19 09:19:41;;;;;;;7.47;3.60;;;;;10.70;103712.00;;;;5102224;28;20259;-71
2022/03/19 09:22:30;;;;;;;6.03;3.53;;;;;10.60;103715.00;;;;5104097;28;20230;-69
2022/03/19 09:25:16;;;;;;;9.67;3.77;;;;;10.70;103712.00;;;;5097160;28;20907;-69
2022/03/19 09:28:04;;;;;;;8.00;3.60;;;;;10.80;103707.00;;;;5087594;28;20604;-70
2022/03/19 09:30:51;;;;;;;7.53;3.63;;;;;10.90;103702.00;;;;5085957;28;20231;-66
2022/03/19 09:33:39;;;;;;;8.37;3.03;;;;;11.00;103697.00;;;;5074122;28;20243;-69
2022/03/19 09:36:26;;;;;;;7.70;3.20;;;;;11.10;103696.00;;;;5072688;28;20960;-69
2022/03/19 09:39:14;;;;;;;7.53;3.17;;;;;10.90;103682.00;;;;5075151;28;20329;-66
2022/03/19 09:42:01;;;;;;;5.10;2.93;;;;;11.10;103691.00;;;;5087863;28;20223;-69
2022/03/19 09:44:48;;;;;;;7.37;3.47;;;;;11.20;103678.00;;;;5082439;28;20235;-69
2022/03/19 09:47:36;;;;;;;8.40;3.10;;;;;11.30;103680.00;;;;5081062;28;20220;-70
2022/03/19 09:50:23;;;;;;;9.43;3.77;;;;;11.40;103681.00;;;;5077636;28;20612;-68
2022/03/19 09:53:12;;;;;;;11.40;4.30;;;;;11.60;103681.00;;;;5090699;28;20720;-68
2022/03/19 09:56:02;;;;;;;5.10;3.00;;;;;11.50;103680.00;;;;5075078;28;20872;-69
2022/03/19 09:58:48;;;;;;;8.70;2.80;;;;;11.60;103683.00;;;;5085477;28;20229;-68
2022/03/19 10:01:38;;;;;;;4.17;2.43;;;;;11.50;103667.00;;;;5083963;28;20264;-68
2022/03/19 10:04:25;;;;;;;4.83;2.80;;;;;11.70;103622.00;;;;5107986;27;20227;-70
2022/03/19 10:10:15;;;;;;;4.93;3.07;;;;;11.80;103671.00;;;;5095414;27;20582;-64
2022/03/19 10:13:09;;;;;;;5.77;2.33;;;;;11.90;103660.00;;;;5091496;28;20581;-70
2022/03/19 10:15:55;;;;;;;6.87;2.47;;;;;12.10;103649.00;;;;5089441;28;20234;-68
2022/03/19 10:18:42;;;;;;;4.93;2.70;;;;;12.00;103649.00;;;;5081685;28;20250;-70
2022/03/19 10:21:29;;;;;;;4.37;2.23;;;;;12.10;103653.00;;;;5087345;28;20231;-69
2022/03/19 10:24:24;;;;;;;5.60;2.93;;;;;12.20;103651.00;;;;5074944;28;20222;-69
2022/03/19 10:27:18;;;;;;;5.83;2.40;;;;;12.40;103642.00;;;;5093907;28;20296;-69
2022/03/19 10:30:09;;;;;;;3.77;2.40;;;;;12.10;103637.00;;;;5106979;27;20747;-69
2022/03/19 10:32:57;;;;;;;4.10;2.03;;;;;12.30;103642.00;;;;5095343;27;20360;-69
2022/03/19 10:35:43;;;;;;;5.20;2.43;;;;;12.50;103623.00;;;;5106786;28;20230;-67
2022/03/19 10:38:29;;;;;;;3.47;2.10;;;;;12.90;103624.00;;;;5089269;28;20713;-68
2022/03/19 10:41:18;;;;;;;5.77;2.40;;;;;12.50;103632.00;;;;5076025;28;20285;-68
2022/03/19 10:44:12;;;;;;;4.97;2.03;;;;;12.40;103625.00;;;;5089618;28;20231;-69
2022/03/19 10:47:02;;;;;;;4.00;1.90;;;;;12.70;103614.00;;;;5109360;28;20381;-68
2022/03/19 10:49:48;;;;;;;3.93;2.40;;;;;12.70;103613.00;;;;5106282;28;20252;-69
2022/03/19 10:52:35;;;;;;;6.60;2.17;;;;;12.70;103616.00;;;;5098647;28;20227;-68
2022/03/19 10:55:22;;;;;;;5.23;2.00;;;;;13.00;103605.00;;;;5095834;28;20893;-68
2022/03/19 10:58:08;;;;;;;3.70;1.67;;;;;13.10;103607.00;;;;5091762;28;20229;-68
2022/03/19 11:01:15;;;;;;;3.30;1.90;;;;;13.10;103610.00;;;;5093091;28;20231;-65
2022/03/19 11:04:04;;;;;;;2.33;1.80;;;;;13.20;103602.00;;;;5089308;28;20723;-68
2022/03/19 11:06:52;;;;;;;3.53;1.70;;;;;13.30;103602.00;;;;5103641;28;20308;-69
2022/03/19 11:09:39;;;;;;;3.77;1.60;;;;;13.20;103597.00;;;;5105666;28;20243;-67
2022/03/19 11:12:30;;;;;;;3.57;1.63;;;;;13.20;103587.00;;;;5095055;28;20714;-67
2022/03/19 11:15:19;;;;;;;3.20;1.37;;;;;13.10;103585.00;;;;5084465;28;20222;-68
2022/03/19 11:18:07;;;;;;;3.53;1.80;;;;;13.20;103577.00;;;;5083043;28;20255;-67
2022/03/19 11:20:58;;;;;;;4.60;1.90;;;;;13.40;103567.00;;;;5076554;28;20314;-68
2022/03/19 11:23:49;;;;;;;2.83;1.80;;;;;13.50;103564.00;;;;5086219;28;20280;-67
2022/03/19 11:26:37;;;;;;;3.00;2.13;;;;;13.70;103564.00;;;;5097286;28;20365;-68
2022/03/19 11:29:23;;;;;;;6.37;2.10;;;;;13.50;103558.00;;;;5074382;28;20358;-68
2022/03/19 11:32:09;;;;;;;7.00;2.30;;;;;13.70;103556.00;;;;5086371;28;20349;-68
2022/03/19 11:34:59;;;;;;;5.40;2.50;;;;;13.70;103545.00;;;;5088836;28;20343;-67
2022/03/19 11:38:01;;;;;;;4.23;2.33;;;;;13.80;103545.00;;;;5082999;28;20353;-68
2022/03/19 11:40:54;;;;;;;3.67;2.20;;;;;13.80;103528.00;;;;5103523;28;20285;-67
2022/03/19 11:43:40;;;;;;;6.10;2.57;;;;;13.80;103510.00;;;;5090182;28;20360;-68
2022/03/19 11:46:29;;;;;;;5.17;2.93;;;;;13.80;103526.00;;;;5105441;28;20254;-69
2022/03/19 11:49:45;;;;;;;6.23;2.37;;;;;14.10;103520.00;;;;5105529;28;20728;-68
2022/03/19 11:53:07;;;;;;;5.93;2.63;;;;;14.00;103523.00;;;;5088492;28;20235;-67
2022/03/19 11:56:03;;;;;;;5.07;2.30;;;;;14.30;103508.00;;;;5099295;28;20247;-68
2022/03/19 11:58:49;;;;;;;6.13;2.60;;;;;14.40;103508.00;;;;5085203;28;20247;-67
2022/03/19 12:01:47;;;;;;;4.83;2.93;;;;;14.10;103496.00;;;;5096904;28;20227;-66
2022/03/19 12:04:41;;;;;;;4.63;2.60;;;;;14.00;103489.00;;;;5083566;28;20235;-67
2022/03/19 12:07:40;;;;;;;3.00;2.20;;;;;13.70;103486.00;;;;5097382;28;20926;-67
2022/03/19 12:10:35;;;;;;;4.83;2.23;;;;;14.00;103477.00;;;;5086892;28;20232;-68
2022/03/19 12:13:36;;;;;;;5.57;2.40;;;;;13.90;103471.00;;;;5077069;28;20232;-66
2022/03/19 12:16:39;;;;;;;4.47;2.43;;;;;14.10;103467.00;;;;5070639;28;20223;-67
2022/03/19 12:19:53;;;;;;;6.80;2.70;;;;;14.40;103466.00;;;;5099164;28;20222;-68
2022/03/19 12:22:41;;;;;;;4.30;2.17;;;;;14.40;103458.00;;;;5098173;28;20233;-67
2022/03/19 12:25:35;;;;;;;4.90;2.47;;;;;14.30;103445.00;;;;5091851;28;20889;-69
2022/03/19 12:28:21;;;;;;;5.07;2.23;;;;;14.50;103443.00;;;;5076832;28;20585;-68
2022/03/19 12:31:09;;;;;;;7.77;3.90;;;;;14.60;103436.00;;;;5068502;28;20977;-69
2022/03/19 12:33:55;;;;;;;5.97;2.60;;;;;14.60;103432.00;;;;5084539;28;20235;-67
2022/03/19 12:36:42;;;;;;;4.70;2.40;;;;;14.40;103429.00;;;;5084689;28;20231;-68
2022/03/19 12:39:29;;;;;;;4.33;2.00;;;;;14.50;103424.00;;;;5084005;28;20237;-70
2022/03/19 12:42:29;;;;;;;3.67;1.90;;;;;14.50;103426.00;;;;5081638;28;20239;-70
2022/03/19 12:45:16;;;;;;;3.63;1.97;;;;;14.70;103416.00;;;;5084759;28;20278;-68
2022/03/19 12:48:04;;;;;;;4.93;2.33;;;;;14.80;103422.00;;;;5092132;28;23071;-68
2022/03/19 12:50:51;;;;;;;2.97;1.80;;;;;14.90;103412.00;;;;5080010;28;20236;-68
2022/03/19 12:53:40;;;;;;;4.73;2.20;;;;;14.60;103379.00;;;;5062371;28;20224;-69
2022/03/19 12:56:28;;;;;;;2.97;1.90;;;;;14.70;103393.00;;;;5062965;28;20228;-68
2022/03/19 12:59:21;;;;;;;7.40;2.50;;;;;15.20;103388.00;;;;5067018;28;21847;-68
2022/03/19 13:02:07;;;;;;;6.40;2.40;;;;;15.10;103383.00;;;;5069518;28;20221;-68
2022/03/19 13:04:54;;;;;;;5.90;2.50;;;;;15.30;103384.00;;;;5082163;28;20227;-68
2022/03/19 13:07:41;;;;;;;6.30;2.40;;;;;15.20;103374.00;;;;5082928;28;20238;-67
2022/03/19 13:10:27;;;;;;;4.23;2.20;;;;;15.40;103360.00;;;;5062729;28;20248;-67
2022/03/19 13:13:14;;;;;;;3.13;1.80;;;;;15.40;103377.00;;;;5081508;28;20242;-68
2022/03/19 13:16:02;;;;;;;3.47;1.87;;;;;15.10;103362.00;;;;5047867;28;20644;-69
2022/03/19 13:18:48;;;;;;;4.13;2.00;;;;;15.20;103362.00;;;;5046284;28;20233;-69
2022/03/19 13:21:37;;;;;;;3.30;2.03;;;;;15.20;103357.00;;;;5050264;28;20232;-68
2022/03/19 13:24:25;;;;;;;2.70;1.90;;;;;15.10;103353.00;;;;5057810;28;20302;-64
2022/03/19 13:27:13;;;;;;;5.40;1.87;;;;;15.10;103351.00;;;;5051316;28;20232;-69
2022/03/19 13:30:00;;;;;;;3.30;1.50;;;;;15.20;103341.00;;;;5071739;28;20308;-68
2022/03/19 13:32:48;;;;;;;4.57;1.40;;;;;15.30;103345.00;;;;5074711;28;20298;-67
2022/03/19 13:35:39;;;;;;;1.60;1.10;;;;;15.50;103338.00;;;;5081107;28;20329;-69
2022/03/19 13:38:26;;;;;;;1.60;1.17;;;;;15.50;103328.00;;;;5071721;28;20261;-68
2022/03/19 13:41:18;;;;;;;2.03;1.20;;;;;15.40;103314.00;;;;5068168;28;20231;-68
2022/03/19 13:44:05;;;;;;;8.37;1.40;;;;;15.20;103330.00;;;;5077429;28;20243;-68
2022/03/19 13:47:07;;;;;;;1.93;1.17;;;;;15.20;103308.00;;;;5080851;28;20330;-71
2022/03/19 13:49:56;;;;;;;1.97;1.20;;;;;15.30;103305.00;;;;5067829;28;20781;-69
2022/03/19 13:52:45;;;;;;;3.63;1.60;;;;;15.10;103305.00;;;;5064450;28;20787;-71
2022/03/19 13:55:38;;;;;;;1.93;1.30;;;;;15.10;103307.00;;;;5068100;28;20313;-70
2022/03/19 13:58:25;;;;;;;1.50;1.40;;;;;15.10;103307.00;;;;5066955;28;20247;-70
2022/03/19 14:01:13;;;;;;;4.90;1.37;;;;;15.00;103277.00;;;;5067181;28;20703;-69
2022/03/19 14:04:00;;;;;;;3.00;1.10;;;;;14.90;103263.00;;;;5072696;28;20233;-69